Time;durP1;ratioP1;P1;durP2;ratioP2;P2;SDS_P1;SDS_P2;PMS_P1;PMS_P2;Temp;Humidity;BMP_temperature;BMP_pressure;BME280_temperature;BME280_humidity;BME280_pressure;Samples;Min_cycle;Max_cycle;Signal;HPM_P1;HPM_P2
2023/10/11 00:01:52;;;;;;;;;;;;;;;27.34;43.25;94720.25;4968478;28;9016;-64
2023/10/11 00:04:24;;;;;;;;;;;;;;;27.34;43.30;94719.53;4998075;28;9488;-55
2023/10/11 00:06:50;;;;;;;;;;;;;;;27.34;43.66;94714.72;4990751;28;8858;-55
2023/10/11 00:09:16;;;;;;;;;;;;;;;27.34;43.28;94717.47;4998525;28;9099;-55
2023/10/11 00:11:42;;;;;;;;;;;;;;;27.33;43.39;94718.00;5049080;28;9079;-55
2023/10/11 00:14:08;;;;;;;;;;;;;;;27.32;43.51;94725.53;5060753;28;8718;-55
2023/10/11 00:16:35;;;;;;;;;;;;;;;27.32;43.33;94720.00;5083565;28;8200;-55
2023/10/11 00:19:01;;;;;;;;;;;;;;;27.29;43.34;94715.53;5052393;28;9163;-55
2023/10/11 00:21:43;;;;;;;;;;;;;;;27.29;43.24;94715.53;5068168;28;7927;-54
2023/10/11 00:24:30;;;;;;;;;;;;;;;27.30;43.36;94716.25;5072539;28;7246;-54
2023/10/11 00:27:02;;;;;;;;;;;;;;;27.30;43.29;94717.03;5047203;28;8330;-54
2023/10/11 00:29:39;;;;;;;;;;;;;;;27.30;43.75;94717.03;5074509;28;9072;-54
2023/10/11 00:32:19;;;;;;;;;;;;;;;27.28;43.29;94716.03;5072829;28;9745;-55
2023/10/11 00:34:49;;;;;;;;;;;;;;;27.30;43.10;94717.03;5092676;28;7714;-55
2023/10/11 00:37:20;;;;;;;;;;;;;;;27.28;43.05;94716.03;5073146;28;8730;-55
2023/10/11 00:40:31;;;;;;;;;;;;;;;27.28;43.25;94714.03;5059611;28;7230;-55
2023/10/11 00:43:31;;;;;;;;;;;;;;;27.26;43.21;94713.78;5056975;28;8802;-55
2023/10/11 00:46:00;;;;;;;;;;;;;;;27.26;43.52;94705.50;5069853;28;9082;-55
2023/10/11 00:48:51;;;;;;;;;;;;;;;27.24;43.34;94710.78;5062674;28;7547;-55
2023/10/11 00:51:26;;;;;;;;;;;;;;;27.24;43.42;94696.22;5056037;28;7232;-55
2023/10/11 00:53:52;;;;;;;;;;;;;;;27.26;43.38;94699.22;5047317;28;7260;-55
2023/10/11 00:56:26;;;;;;;;;;;;;;;27.25;43.49;94697.75;5057655;28;9683;-55
2023/10/11 00:58:55;;;;;;;;;;;;;;;27.24;43.35;94699.75;5059997;28;7005;-55
2023/10/11 01:01:58;;;;;;;;;;;;;;;27.24;43.40;94691.47;5064049;28;6992;-55
2023/10/11 01:04:34;;;;;;;;;;;;;;;27.21;43.39;94689.72;5074243;28;7111;-56
2023/10/11 01:07:08;;;;;;;;;;;;;;;27.23;43.25;94692.72;5082031;28;8793;-54
2023/10/11 01:09:47;;;;;;;;;;;;;;;27.24;43.38;94691.47;5078067;28;7163;-54
2023/10/11 01:12:13;;;;;;;;;;;;;;;27.23;43.62;94692.72;5079013;28;9229;-53
2023/10/11 01:14:56;;;;;;;;;;;;;;;27.23;43.38;94687.19;5052258;28;7245;-56
2023/10/11 01:17:24;;;;;;;;;;;;;;;27.23;43.29;94686.47;5050076;28;6895;-56
2023/10/11 01:19:51;;;;;;;;;;;;;;;27.22;43.91;94694.00;5052733;28;7349;-57
2023/10/11 01:22:21;;;;;;;;;;;;;;;27.23;43.86;94681.66;5061225;28;9045;-57
2023/10/11 01:24:54;;;;;;;;;;;;;;;27.23;43.08;94687.19;5057673;28;7550;-56
2023/10/11 01:27:30;;;;;;;;;;;;;;;27.21;43.75;94681.44;5057248;28;7313;-56
2023/10/11 01:30:03;;;;;;;;;;;;;;;27.21;43.83;94684.19;5056334;28;9081;-56
2023/10/11 01:32:42;;;;;;;;;;;;;;;27.18;43.27;94685.25;5047462;28;7148;-56
2023/10/11 01:35:20;;;;;;;;;;;;;;;27.19;43.13;94681.19;5054621;28;7225;-57
2023/10/11 01:37:55;;;;;;;;;;;;;;;27.21;43.69;94683.47;5062028;28;7065;-56
2023/10/11 01:40:39;;;;;;;;;;;;;;;27.20;43.33;94679.94;5067185;28;7194;-56
2023/10/11 01:43:06;;;;;;;;;;;;;;;27.19;43.22;94681.19;5056217;28;7333;-56
2023/10/11 01:45:45;;;;;;;;;;;;;;;27.19;43.62;94683.22;5055716;28;7259;-56
2023/10/11 01:48:20;;;;;;;;;;;;;;;27.19;43.29;94686.72;5040444;28;7259;-57
2023/10/11 01:50:47;;;;;;;;;;;;;;;27.19;43.85;94681.19;5078192;28;7304;-56
2023/10/11 01:53:22;;;;;;;;;;;;;;;27.20;43.02;94681.97;5081648;28;7214;-56
2023/10/11 01:56:00;;;;;;;;;;;;;;;27.19;43.47;94680.44;5068101;28;7341;-57
2023/10/11 01:58:28;;;;;;;;;;;;;;;27.18;43.17;94679.72;5037875;28;7263;-56
2023/10/11 02:01:02;;;;;;;;;;;;;;;27.17;43.26;94678.22;5077629;28;7234;-56
2023/10/11 02:03:39;;;;;;;;;;;;;;;27.17;43.26;94678.22;5038575;28;7245;-57
2023/10/11 02:06:21;;;;;;;;;;;;;;;27.18;43.41;94674.19;5075657;28;8437;-56
2023/10/11 02:08:52;;;;;;;;;;;;;;;27.17;43.37;94669.94;5064585;28;9119;-56
2023/10/11 02:11:29;;;;;;;;;;;;;;;27.15;43.91;94674.47;5044089;28;7262;-56
2023/10/11 02:14:37;;;;;;;;;;;;;;;27.15;43.34;94672.47;5058884;28;7323;-57
2023/10/11 02:17:08;;;;;;;;;;;;;;;27.15;43.66;94677.22;5051209;28;7279;-56
2023/10/11 02:19:39;;;;;;;;;;;;;;;27.12;43.42;94681.75;5073112;28;7250;-57
2023/10/11 02:22:22;;;;;;;;;;;;;;;27.11;43.34;94674.75;5064053;28;9191;-56
2023/10/11 02:24:51;;;;;;;;;;;;;;;27.14;43.49;94673.72;5056453;28;7187;-61
2023/10/11 02:27:36;;;;;;;;;;;;;;;27.13;43.50;94677.00;5038297;28;7256;-61
2023/10/11 02:30:41;;;;;;;;;;;;;;;27.13;43.42;94679.75;5075495;28;7714;-61
2023/10/11 02:33:50;;;;;;;;;;;;;;;27.14;43.15;94679.25;5008523;28;6979;-61
2023/10/11 02:36:35;;;;;;;;;;;;;;;27.14;43.58;94673.72;4921912;29;7224;-61
2023/10/11 02:39:06;;;;;;;;;;;;;;;27.14;43.40;94686.78;4913757;29;8874;-61
2023/10/11 02:41:37;;;;;;;;;;;;;;;27.11;43.37;94674.75;4908959;29;7382;-61
2023/10/11 02:44:05;;;;;;;;;;;;;;;27.10;43.34;94684.28;4914240;29;7067;-61
2023/10/11 02:47:07;;;;;;;;;;;;;;;27.12;43.43;94679.00;4919313;29;7312;-61
2023/10/11 02:50:05;;;;;;;;;;;;;;;27.11;43.43;94680.28;4911534;29;7306;-61
2023/10/11 02:52:35;;;;;;;;;;;;;;;27.08;43.40;94675.78;4933272;29;8755;-61
2023/10/11 02:55:16;;;;;;;;;;;;;;;27.09;43.48;94682.81;4924582;29;9398;-60
2023/10/11 02:57:43;;;;;;;;;;;;;;;27.08;43.45;94681.28;4919903;29;9430;-60
2023/10/11 03:00:24;;;;;;;;;;;;;;;27.08;43.33;94686.09;4918396;29;7253;-61
2023/10/11 03:02:56;;;;;;;;;;;;;;;27.07;43.20;94674.28;4915070;29;8708;-61
2023/10/11 03:05:28;;;;;;;;;;;;;;;27.06;43.39;94677.53;4902788;29;7271;-61
2023/10/11 03:08:13;;;;;;;;;;;;;;;27.05;43.59;94676.06;5026459;28;7411;-61
2023/10/11 03:10:44;;;;;;;;;;;;;;;27.06;43.24;94678.28;5041438;28;7267;-61
2023/10/11 03:13:23;;;;;;;;;;;;;;;27.05;43.37;94676.81;5039921;28;7089;-61
2023/10/11 03:15:59;;;;;;;;;;;;;;;27.07;42.98;94679.81;5054463;28;7233;-61
2023/10/11 03:18:32;;;;;;;;;;;;;;;27.05;43.30;94679.56;5074637;28;9080;-61
2023/10/11 03:23:45;;;;;;;;;;;;;;;27.04;43.59;94680.81;5072817;28;8749;-61
2023/10/11 03:26:22;;;;;;;;;;;;;;;27.05;43.48;94676.81;5068663;28;7875;-61
2023/10/11 03:29:03;;;;;;;;;;;;;;;27.03;43.29;94679.34;5066235;28;9141;-62
2023/10/11 03:31:40;;;;;;;;;;;;;;;27.05;43.22;94671.28;5042223;28;7155;-61
2023/10/11 03:34:19;;;;;;;;;;;;;;;27.05;43.40;94676.06;5056446;28;7041;-56
2023/10/11 03:37:03;;;;;;;;;;;;;;;27.03;43.36;94679.34;5036365;28;7179;-56
2023/10/11 03:42:21;;;;;;;;;;;;;;;27.02;43.44;94677.81;5062315;28;7244;-56
2023/10/11 03:44:47;;;;;;;;;;;;;;;27.02;42.77;94677.81;5074000;28;7169;-56
2023/10/11 03:47:14;;;;;;;;;;;;;;;27.02;43.39;94677.81;5053015;28;9357;-56
2023/10/11 03:52:43;;;;;;;;;;;;;;;27.03;43.46;94679.34;5064543;28;8754;-56
2023/10/11 03:55:09;;;;;;;;;;;;;;;27.02;43.26;94671.56;5055344;28;7224;-57
2023/10/11 03:57:42;;;;;;;;;;;;;;;27.01;43.20;94675.59;5067354;28;7288;-57
2023/10/11 04:00:48;;;;;;;;;;;;;;;27.01;43.37;94673.59;5055915;28;9539;-56
2023/10/11 04:03:26;;;;;;;;;;;;;;;27.01;43.04;94683.88;5062557;28;6945;-56
2023/10/11 04:06:13;;;;;;;;;;;;;;;27.00;43.40;94680.34;5049687;28;7125;-57
2023/10/11 04:08:49;;;;;;;;;;;;;;;27.00;43.61;94682.38;5070302;28;7042;-56
2023/10/11 04:11:22;;;;;;;;;;;;;;;27.00;43.47;94674.06;5049101;28;8872;-56
2023/10/11 04:13:50;;;;;;;;;;;;;;;26.99;43.36;94686.41;5057090;28;7301;-57
2023/10/11 04:16:28;;;;;;;;;;;;;;;26.99;43.20;94686.41;5052351;28;7342;-56
2023/10/11 04:18:59;;;;;;;;;;;;;;;27.01;43.33;94692.16;5062636;28;7266;-57
2023/10/11 04:21:53;;;;;;;;;;;;;;;26.99;43.51;94687.13;5052374;28;7517;-57
2023/10/11 04:24:53;;;;;;;;;;;;;;;26.98;43.38;94688.41;5056337;28;6997;-56
2023/10/11 04:29:52;;;;;;;;;;;;;;;26.97;43.35;94688.94;5068282;28;7225;-57
2023/10/11 04:32:46;;;;;;;;;;;;;;;26.97;43.39;94697.22;5080084;28;7651;-56
2023/10/11 04:35:25;;;;;;;;;;;;;;;26.96;43.17;94688.16;5045333;28;9158;-56
2023/10/11 04:38:04;;;;;;;;;;;;;;;26.95;43.23;94691.44;5062303;28;7427;-57
2023/10/11 04:40:53;;;;;;;;;;;;;;;26.94;43.42;94693.47;5051661;28;9214;-56
2023/10/11 04:43:29;;;;;;;;;;;;;;;26.92;43.23;94682.19;5052996;28;7076;-61
2023/10/11 04:46:00;;;;;;;;;;;;;;;26.95;43.45;94683.16;5064147;28;9477;-61
2023/10/11 04:48:41;;;;;;;;;;;;;;;26.94;43.19;94690.69;5055462;28;8463;-61
2023/10/11 04:59:36;;;;;;;;;;;;;;;26.88;43.39;94690.00;5062875;28;7006;-61
2023/10/11 05:02:16;;;;;;;;;;;;;;;26.90;43.41;94693.72;5053227;28;9074;-61
2023/10/11 05:05:19;;;;;;;;;;;;;;;26.92;43.17;94695.97;5036157;28;7268;-61
2023/10/11 05:07:46;;;;;;;;;;;;;;;26.92;43.23;94695.97;5008827;28;6980;-61
2023/10/11 05:10:30;;;;;;;;;;;;;;;26.90;43.78;94704.03;5013351;28;7664;-61
2023/10/11 05:13:05;;;;;;;;;;;;;;;26.86;43.52;94696.00;5010416;28;7505;-61
2023/10/11 05:15:42;;;;;;;;;;;;;;;26.89;43.45;94699.75;5014222;28;7276;-61
2023/10/11 05:18:10;;;;;;;;;;;;;;;26.90;43.57;94709.53;5017618;28;8866;-61
2023/10/11 05:20:57;;;;;;;;;;;;;;;26.89;43.16;94713.56;5033268;28;8765;-61
2023/10/11 05:23:52;;;;;;;;;;;;;;;26.87;43.60;94705.78;5005617;28;7270;-61
2023/10/11 05:26:37;;;;;;;;;;;;;;;26.88;43.39;94709.31;5022409;28;7255;-61
2023/10/11 05:29:24;;;;;;;;;;;;;;;26.89;43.37;94710.78;5015064;28;8373;-61
2023/10/11 05:32:20;;;;;;;;;;;;;;;26.90;43.62;94709.53;5022847;28;8708;-61
2023/10/11 05:35:19;;;;;;;;;;;;;;;26.87;43.38;94711.31;5022896;28;9145;-61
2023/10/11 05:51:50;;;;;;;;;;;;;;;26.86;43.07;94714.59;5060601;28;6998;-61
2023/10/11 05:54:34;;;;;;;;;;;;;;;26.84;43.33;94717.09;5088002;28;7195;-57
2023/10/11 05:57:06;;;;;;;;;;;;;;;26.86;43.24;94720.13;5063395;28;9099;-57
2023/10/11 05:59:39;;;;;;;;;;;;;;;26.86;43.22;94722.88;5089349;28;7268;-56
2023/10/11 06:02:13;;;;;;;;;;;;;;;26.86;43.37;94723.59;5056573;28;8876;-56
2023/10/11 06:04:43;;;;;;;;;;;;;;;26.84;43.73;94728.88;5053654;28;7000;-57
2023/10/11 06:07:21;;;;;;;;;;;;;;;26.83;43.47;94727.41;5057213;28;6971;-57
2023/10/11 06:09:52;;;;;;;;;;;;;;;26.85;43.40;94724.13;5061793;28;7070;-56
2023/10/11 06:12:23;;;;;;;;;;;;;;;26.84;43.59;94725.38;5082392;28;7271;-57
2023/10/11 06:14:57;;;;;;;;;;;;;;;26.83;43.41;94727.41;5071700;28;7238;-57
2023/10/11 06:17:42;;;;;;;;;;;;;;;26.84;43.20;94722.59;5054521;28;8783;-56
2023/10/11 06:21:01;;;;;;;;;;;;;;;26.85;43.47;94729.63;5070569;28;9049;-56
2023/10/11 06:23:30;;;;;;;;;;;;;;;26.83;43.23;94734.94;5088965;28;9041;-57
2023/10/11 06:26:28;;;;;;;;;;;;;;;26.83;43.33;94738.44;5081480;28;9100;-56
2023/10/11 06:29:07;;;;;;;;;;;;;;;26.83;43.38;94745.97;5063608;28;8216;-57
2023/10/11 06:31:44;;;;;;;;;;;;;;;26.82;43.52;94753.50;5059791;28;8959;-56
2023/10/11 06:34:24;;;;;;;;;;;;;;;26.80;43.30;94742.22;5059787;28;9149;-56
2023/10/11 06:36:53;;;;;;;;;;;;;;;26.83;43.52;94748.72;5037685;28;7504;-56
2023/10/11 06:42:23;;;;;;;;;;;;;;;26.82;43.63;94750.72;5043319;28;7012;-57
2023/10/11 06:44:57;;;;;;;;;;;;;;;26.79;43.35;94748.25;5047027;28;7462;-57
2023/10/11 06:47:36;;;;;;;;;;;;;;;26.82;43.23;94744.44;5054069;28;7467;-57
2023/10/11 06:50:10;;;;;;;;;;;;;;;26.81;43.21;94748.50;5032576;28;7206;-56
2023/10/11 06:52:45;;;;;;;;;;;;;;;26.80;43.33;94744.97;5030862;28;7432;-56
2023/10/11 06:55:17;;;;;;;;;;;;;;;26.80;43.89;94746.97;5018070;28;8081;-56
2023/10/11 06:58:03;;;;;;;;;;;;;;;26.81;43.50;94762.28;5034528;28;9086;-57
2023/10/11 07:00:37;;;;;;;;;;;;;;;26.78;43.38;94749.50;5032736;28;7117;-57
2023/10/11 07:03:26;;;;;;;;;;;;;;;26.81;42.86;94754.00;5035467;28;7241;-56
2023/10/11 07:06:00;;;;;;;;;;;;;;;26.79;43.52;94748.25;5027184;28;7241;-57
2023/10/11 07:09:05;;;;;;;;;;;;;;;26.82;43.23;94752.72;5033442;28;9021;-57
2023/10/11 07:11:50;;;;;;;;;;;;;;;26.80;43.17;94749.72;5011371;28;7050;-56
2023/10/11 07:14:28;;;;;;;;;;;;;;;26.78;43.19;94744.72;4984277;28;7291;-61
2023/10/11 07:16:56;;;;;;;;;;;;;;;26.78;43.82;94743.97;4991919;28;7516;-61
2023/10/11 07:19:35;;;;;;;;;;;;;;;26.81;43.42;94751.25;5007699;28;9047;-62
2023/10/11 07:22:18;;;;;;;;;;;;;;;26.82;43.42;94753.50;5001749;28;7251;-62
2023/10/11 07:24:55;;;;;;;;;;;;;;;26.78;43.29;94749.50;5001977;28;7266;-61
2023/10/11 07:27:37;;;;;;;;;;;;;;;26.79;43.42;94746.25;4976898;28;9766;-61
2023/10/11 07:30:16;;;;;;;;;;;;;;;26.83;43.38;94754.25;5006968;28;7554;-61
2023/10/11 07:32:50;;;;;;;;;;;;;;;26.81;43.27;94754.00;5011673;28;8719;-61
2023/10/11 07:35:27;;;;;;;;;;;;;;;26.78;43.40;94763.28;5005900;28;9203;-62
2023/10/11 07:38:08;;;;;;;;;;;;;;;26.78;43.45;94768.81;5015674;28;7168;-61
2023/10/11 07:40:45;;;;;;;;;;;;;;;26.81;43.33;94756.75;5013769;28;6994;-61
2023/10/11 07:43:25;;;;;;;;;;;;;;;26.80;43.31;94769.06;4996345;28;7617;-61
2023/10/11 07:45:51;;;;;;;;;;;;;;;26.83;43.71;94762.53;5025299;28;7250;-61
2023/10/11 07:48:18;;;;;;;;;;;;;;;26.84;43.73;94762.00;5063967;28;7314;-61
2023/10/11 07:50:46;;;;;;;;;;;;;;;26.84;43.06;94758.50;5072489;28;8701;-61
2023/10/11 07:53:13;;;;;;;;;;;;;;;26.83;43.24;94766.03;5055551;28;7263;-61
2023/10/11 07:55:45;;;;;;;;;;;;;;;26.85;43.45;94754.47;5035432;28;7657;-61
2023/10/11 07:58:22;;;;;;;;;;;;;;;26.87;43.44;94760.25;5053890;28;7071;-61
2023/10/11 08:00:51;;;;;;;;;;;;;;;26.88;43.28;94756.22;5035184;28;7519;-61
2023/10/11 08:03:17;;;;;;;;;;;;;;;26.86;42.84;94750.47;5054339;28;7238;-61
2023/10/11 08:05:47;;;;;;;;;;;;;;;26.88;43.46;94756.22;5064157;28;7913;-61
2023/10/11 08:08:21;;;;;;;;;;;;;;;26.88;43.37;94761.75;5041934;28;7001;-61
2023/10/11 08:10:52;;;;;;;;;;;;;;;26.86;43.52;94745.69;5076108;28;7282;-61
2023/10/11 08:13:26;;;;;;;;;;;;;;;26.88;43.27;94750.72;5059356;28;7239;-61
2023/10/11 08:15:57;;;;;;;;;;;;;;;26.88;43.12;94745.19;5053335;28;6986;-61
2023/10/11 08:18:29;;;;;;;;;;;;;;;26.89;43.52;94750.19;5058490;28;7319;-61
2023/10/11 08:21:00;;;;;;;;;;;;;;;26.89;43.28;94752.94;5076315;28;6993;-61
2023/10/11 08:23:30;;;;;;;;;;;;;;;26.91;43.27;94752.44;5081176;28;7180;-62
2023/10/11 08:26:05;;;;;;;;;;;;;;;26.90;43.42;94745.44;5053014;28;8785;-62
2023/10/11 08:28:34;;;;;;;;;;;;;;;26.89;43.16;94741.16;5058631;28;8784;-62
2023/10/11 08:31:09;;;;;;;;;;;;;;;26.92;43.57;94750.44;5056360;28;7379;-61
2023/10/11 08:33:37;;;;;;;;;;;;;;;26.89;43.19;94735.63;5061939;28;7021;-61
2023/10/11 08:36:35;;;;;;;;;;;;;;;26.91;43.33;94744.16;5058459;28;7058;-61
2023/10/11 08:39:06;;;;;;;;;;;;;;;26.90;43.32;94737.16;4991631;28;8048;-62
2023/10/11 08:41:43;;;;;;;;;;;;;;;26.92;43.16;94749.16;5023129;28;7302;-61
2023/10/11 08:44:32;;;;;;;;;;;;;;;26.94;43.09;94736.88;4992327;28;8782;-61
2023/10/11 08:47:04;;;;;;;;;;;;;;;26.92;43.13;94744.91;5003113;28;7247;-61
2023/10/11 08:50:08;;;;;;;;;;;;;;;26.92;43.11;94734.63;5001571;28;7187;-62
2023/10/11 08:52:45;;;;;;;;;;;;;;;26.89;43.42;94746.69;5000974;28;7983;-62
2023/10/11 08:55:19;;;;;;;;;;;;;;;26.91;43.32;94741.41;4999020;28;7694;-62
2023/10/11 08:57:54;;;;;;;;;;;;;;;26.88;43.60;94745.91;5031274;28;7194;-62
2023/10/11 09:00:47;;;;;;;;;;;;;;;26.90;43.47;94735.13;5005510;28;7000;-62
2023/10/11 09:03:39;;;;;;;;;;;;;;;26.92;43.30;94737.38;5006548;28;7329;-61
2023/10/11 09:06:35;;;;;;;;;;;;;;;26.93;43.21;94747.16;4990381;28;8768;-62
2023/10/11 09:09:41;;;;;;;;;;;;;;;26.92;43.08;94742.91;5003211;28;7253;-62
2023/10/11 09:12:24;;;;;;;;;;;;;;;26.92;43.40;94740.88;5004989;28;9604;-61
2023/10/11 09:15:17;;;;;;;;;;;;;;;26.92;43.31;94746.41;5028409;28;7307;-62
2023/10/11 09:18:24;;;;;;;;;;;;;;;26.92;43.35;94740.88;5009418;28;8611;-61
2023/10/11 09:21:09;;;;;;;;;;;;;;;26.93;42.92;94741.63;4993741;28;9060;-61
2023/10/11 09:23:51;;;;;;;;;;;;;;;26.94;43.34;94740.38;4988442;28;9253;-61
2023/10/11 09:26:34;;;;;;;;;;;;;;;26.95;42.77;94744.63;4996887;28;9099;-61
2023/10/11 09:29:16;;;;;;;;;;;;;;;26.94;43.11;94737.63;5000279;28;6976;-61
2023/10/11 09:32:04;;;;;;;;;;;;;;;26.96;43.46;94751.66;5013228;28;7426;-61
2023/10/11 09:34:41;;;;;;;;;;;;;;;26.97;43.07;94747.63;5028761;28;7738;-62
2023/10/11 09:37:47;;;;;;;;;;;;;;;26.96;42.88;94740.63;5004904;28;7249;-62
2023/10/11 09:40:18;;;;;;;;;;;;;;;26.96;43.28;94743.38;4951666;28;7473;-62
2023/10/11 09:43:02;;;;;;;;;;;;;;;26.99;43.25;94753.38;4955539;28;7322;-62
2023/10/11 09:45:42;;;;;;;;;;;;;;;26.99;43.05;94750.63;4979803;28;8189;-62
2023/10/11 09:48:22;;;;;;;;;;;;;;;26.97;42.80;94755.91;4979006;28;8806;-62
2023/10/11 09:50:57;;;;;;;;;;;;;;;26.98;43.47;94745.63;4965076;28;9163;-62
2023/10/11 09:53:25;;;;;;;;;;;;;;;27.00;42.94;94752.13;4954613;28;7162;-63
2023/10/11 09:56:30;;;;;;;;;;;;;;;27.00;43.26;94749.38;5016905;28;8046;-62
2023/10/11 09:59:10;;;;;;;;;;;;;;;26.99;43.25;94742.34;5017150;28;7466;-62
2023/10/11 10:02:15;;;;;;;;;;;;;;;27.01;43.17;94748.13;5021334;28;7038;-62
2023/10/11 10:04:52;;;;;;;;;;;;;;;27.02;43.03;94755.13;4946767;28;8769;-62
2023/10/11 10:10:25;;;;;;;;;;;;;;;27.02;43.04;94754.38;4954526;28;6996;-62
2023/10/11 10:13:09;;;;;;;;;;;;;;;27.02;43.04;94760.66;4944412;28;7818;-62
2023/10/11 10:15:57;;;;;;;;;;;;;;;27.01;43.10;94756.41;4944646;28;7485;-62
2023/10/11 10:18:24;;;;;;;;;;;;;;;27.00;43.44;94749.38;4955218;28;8739;-62
2023/10/11 10:21:04;;;;;;;;;;;;;;;27.05;43.22;94758.88;4945589;28;7222;-62
2023/10/11 10:24:23;;;;;;;;;;;;;;;27.04;43.18;94758.13;4941686;28;7178;-62
2023/10/11 10:27:32;;;;;;;;;;;;;;;27.05;43.37;94751.34;4904473;29;7008;-62
2023/10/11 10:30:04;;;;;;;;;;;;;;;27.06;43.19;94752.84;4912967;29;9103;-62
2023/10/11 10:33:19;;;;;;;;;;;;;;;27.06;43.21;94750.06;4916024;29;7239;-61
2023/10/11 10:36:21;;;;;;;;;;;;;;;27.09;43.21;94751.81;4902457;29;9293;-62
2023/10/11 10:39:05;;;;;;;;;;;;;;;27.08;42.99;94744.78;4956324;28;8466;-62
2023/10/11 10:41:41;;;;;;;;;;;;;;;27.09;43.05;94749.06;4988279;28;7826;-62
2023/10/11 10:44:19;;;;;;;;;;;;;;;27.08;42.85;94744.06;4990812;28;7576;-56
2023/10/11 10:46:53;;;;;;;;;;;;;;;27.10;43.39;94741.53;4998774;28;7577;-56
2023/10/11 10:49:41;;;;;;;;;;;;;;;27.10;43.20;94736.75;4976867;28;9050;-56
2023/10/11 10:52:30;;;;;;;;;;;;;;;27.15;42.88;94735.97;4983091;28;7330;-55
2023/10/11 10:55:05;;;;;;;;;;;;;;;27.18;42.98;94729.44;4976138;28;7050;-55
2023/10/11 10:57:41;;;;;;;;;;;;;;;27.21;42.89;94733.91;4976156;28;7054;-55
2023/10/11 11:00:22;;;;;;;;;;;;;;;27.23;43.00;94723.09;4975717;28;7426;-55
2023/10/11 11:02:50;;;;;;;;;;;;;;;27.23;43.10;94720.34;5051684;28;6932;-55
2023/10/11 11:05:24;;;;;;;;;;;;;;;27.26;43.17;94713.78;5046582;28;8977;-55
2023/10/11 11:07:50;;;;;;;;;;;;;;;27.27;43.00;94709.03;5076201;28;7703;-55
2023/10/11 11:10:21;;;;;;;;;;;;;;;27.28;42.95;94711.25;5053614;28;7005;-55
2023/10/11 11:12:49;;;;;;;;;;;;;;;27.28;43.16;94694.69;5060923;28;8731;-55
2023/10/11 11:15:21;;;;;;;;;;;;;;;27.32;42.34;94699.94;5047167;28;7347;-55
2023/10/11 11:17:50;;;;;;;;;;;;;;;27.34;42.57;94697.44;5053712;28;7240;-55
2023/10/11 11:20:29;;;;;;;;;;;;;;;27.35;42.80;94690.63;5084260;28;7008;-56
2023/10/11 11:23:04;;;;;;;;;;;;;;;27.35;42.89;94696.16;5092800;28;7230;-55
2023/10/11 11:25:34;;;;;;;;;;;;;;;27.37;42.56;94686.09;5062804;28;7756;-55
2023/10/11 11:28:14;;;;;;;;;;;;;;;27.40;43.08;94685.09;5057063;28;7381;-55
2023/10/11 11:31:13;;;;;;;;;;;;;;;27.42;42.66;94677.03;5048403;28;6997;-55
2023/10/11 11:36:34;;;;;;;;;;;;;;;27.46;42.90;94676.75;5061832;28;7244;-55
2023/10/11 11:39:36;;;;;;;;;;;;;;;27.45;42.37;94670.47;5086552;28;6995;-55
2023/10/11 11:42:07;;;;;;;;;;;;;;;27.50;42.43;94671.69;5063284;28;9274;-55
2023/10/11 11:44:46;;;;;;;;;;;;;;;27.48;43.02;94663.91;5070304;28;7326;-55
2023/10/11 11:47:13;;;;;;;;;;;;;;;27.49;42.65;94664.66;5057069;28;7333;-54
2023/10/11 11:49:39;;;;;;;;;;;;;;;27.48;42.66;94660.41;5043770;28;7444;-56
2023/10/11 11:52:16;;;;;;;;;;;;;;;27.48;42.86;94658.38;5060799;28;9007;-55
2023/10/11 11:54:44;;;;;;;;;;;;;;;27.49;42.79;94659.88;5077356;28;9341;-62
2023/10/11 11:57:11;;;;;;;;;;;;;;;27.50;42.43;94653.09;5060746;28;7857;-62
2023/10/11 11:59:40;;;;;;;;;;;;;;;27.53;42.71;94649.28;5042660;28;8779;-62
2023/10/11 12:02:16;;;;;;;;;;;;;;;27.52;42.63;94656.09;5051300;28;7078;-63
2023/10/11 12:04:44;;;;;;;;;;;;;;;27.54;43.01;94655.56;5056369;28;7241;-63
2023/10/11 12:07:11;;;;;;;;;;;;;;;27.55;42.28;94649.53;5047896;28;7146;-62
2023/10/11 12:09:38;;;;;;;;;;;;;;;27.58;42.20;94647.72;5055821;28;7240;-62
2023/10/11 12:12:06;;;;;;;;;;;;;;;27.59;42.56;94636.19;5082778;28;8789;-62
2023/10/11 12:14:37;;;;;;;;;;;;;;;27.61;42.41;94643.94;5064139;28;9096;-62
2023/10/11 12:17:09;;;;;;;;;;;;;;;27.62;42.71;94646.19;5052078;28;7255;-62
2023/10/11 12:19:41;;;;;;;;;;;;;;;27.67;42.25;94643.88;5057306;28;7240;-62
2023/10/11 12:22:08;;;;;;;;;;;;;;;27.68;42.91;94639.84;5066064;28;7028;-62
2023/10/11 12:24:44;;;;;;;;;;;;;;;27.66;42.59;94637.63;5052650;28;10104;-62
2023/10/11 12:27:23;;;;;;;;;;;;;;;27.70;42.85;94634.56;5060771;28;9676;-62
2023/10/11 12:29:57;;;;;;;;;;;;;;;27.72;42.57;94632.00;5045582;28;9463;-62
2023/10/11 12:32:24;;;;;;;;;;;;;;;27.73;42.16;94622.47;5059025;28;9370;-62
2023/10/11 12:35:04;;;;;;;;;;;;;;;27.76;41.79;94629.69;5062267;28;6977;-62
2023/10/11 12:37:51;;;;;;;;;;;;;;;27.76;42.48;94624.94;5070624;28;9106;-62
2023/10/11 12:40:22;;;;;;;;;;;;;;;27.77;42.50;94623.69;5055537;28;7421;-62
2023/10/11 12:42:51;;;;;;;;;;;;;;;27.81;42.63;94626.91;5091243;28;9095;-62
2023/10/11 12:45:17;;;;;;;;;;;;;;;27.83;42.54;94627.13;5036209;28;9226;-62
2023/10/11 12:47:46;;;;;;;;;;;;;;;27.84;42.51;94620.31;5064574;28;9169;-62
2023/10/11 12:50:14;;;;;;;;;;;;;;;27.85;42.71;94610.00;5055135;28;7310;-62
2023/10/11 12:52:53;;;;;;;;;;;;;;;27.87;42.64;94610.22;5060531;28;7383;-62
2023/10/11 12:55:30;;;;;;;;;;;;;;;27.91;42.35;94605.91;5070677;28;7257;-62
2023/10/11 12:57:58;;;;;;;;;;;;;;;27.95;42.21;94611.16;5054420;28;7464;-62
2023/10/11 13:00:37;;;;;;;;;;;;;;;27.95;42.44;94602.88;5073536;28;7265;-62
2023/10/11 13:03:24;;;;;;;;;;;;;;;27.96;42.03;94605.09;5051119;28;7813;-63
2023/10/11 13:05:52;;;;;;;;;;;;;;;27.98;42.28;94601.84;5070810;28;9116;-65
2023/10/11 13:08:26;;;;;;;;;;;;;;;27.99;42.28;94595.78;5072677;28;7161;-65
2023/10/11 13:10:53;;;;;;;;;;;;;;;28.02;42.21;94596.75;5045660;28;7257;-65
2023/10/11 13:13:27;;;;;;;;;;;;;;;28.04;42.05;94591.44;5090023;28;6996;-65
2023/10/11 13:15:58;;;;;;;;;;;;;;;28.06;41.97;94594.44;5052473;28;7511;-65
2023/10/11 13:18:32;;;;;;;;;;;;;;;28.03;42.41;94585.19;5085976;28;7048;-65
2023/10/11 13:21:04;;;;;;;;;;;;;;;28.09;42.67;94596.16;5070492;28;8799;-65
2023/10/11 13:23:34;;;;;;;;;;;;;;;28.09;42.79;94582.34;5051072;28;7180;-65
2023/10/11 13:26:09;;;;;;;;;;;;;;;28.13;41.62;94589.06;5051602;28;9143;-65
2023/10/11 13:28:36;;;;;;;;;;;;;;;28.15;42.35;94586.53;5066207;28;7171;-65
2023/10/11 13:31:05;;;;;;;;;;;;;;;28.17;41.83;94581.22;5054145;28;7218;-65
2023/10/11 13:33:40;;;;;;;;;;;;;;;28.20;41.86;94580.19;5078909;28;7190;-65
2023/10/11 13:36:08;;;;;;;;;;;;;;;28.23;41.78;94576.34;5073767;28;7275;-65
2023/10/11 13:38:36;;;;;;;;;;;;;;;28.26;42.23;94577.31;5039951;28;7299;-65
2023/10/11 13:41:12;;;;;;;;;;;;;;;28.28;42.40;94574.78;5074176;28;7080;-65
2023/10/11 13:43:44;;;;;;;;;;;;;;;28.31;42.21;94579.28;5063122;28;8813;-65
2023/10/11 13:46:10;;;;;;;;;;;;;;;28.31;41.83;94566.19;5084608;28;7020;-65
2023/10/11 13:48:46;;;;;;;;;;;;;;;28.33;41.83;94565.66;5074792;28;7681;-65
2023/10/11 13:51:30;;;;;;;;;;;;;;;28.38;41.98;94567.59;5044516;28;7093;-65
2023/10/11 13:54:34;;;;;;;;;;;;;;;28.39;41.69;94560.78;5068283;28;7854;-65
2023/10/11 13:57:16;;;;;;;;;;;;;;;28.41;41.98;94558.25;5004159;28;7248;-65
2023/10/11 13:59:53;;;;;;;;;;;;;;;28.44;42.27;94551.66;5001389;28;6982;-65
2023/10/11 14:05:13;;;;;;;;;;;;;;;28.49;42.55;94552.88;5015540;28;7894;-65
2023/10/11 14:10:26;;;;;;;;;;;;;;;28.54;42.07;94536.16;4998250;28;7384;-65
2023/10/11 14:13:12;;;;;;;;;;;;;;;28.54;42.00;94540.94;5003413;28;7250;-65
2023/10/11 14:15:43;;;;;;;;;;;;;;;28.57;41.76;94532.38;4989115;28;8500;-65
2023/10/11 14:18:20;;;;;;;;;;;;;;;28.58;41.51;94530.38;5003465;28;7573;-65
2023/10/11 14:21:01;;;;;;;;;;;;;;;28.64;41.17;94531.00;5000308;28;7013;-65
2023/10/11 14:23:33;;;;;;;;;;;;;;;28.64;41.85;94528.25;4993667;28;7217;-65
2023/10/11 14:26:05;;;;;;;;;;;;;;;28.68;41.85;94520.38;5011340;28;9416;-65
2023/10/11 14:28:31;;;;;;;;;;;;;;;28.69;41.88;94519.09;5022427;28;6952;-65
2023/10/11 14:31:17;;;;;;;;;;;;;;;28.74;41.15;94524.53;4986239;28;6915;-65
2023/10/11 14:33:53;;;;;;;;;;;;;;;28.74;41.85;94515.50;5035519;28;7009;-65
2023/10/11 14:36:23;;;;;;;;;;;;;;;28.78;41.33;94522.22;5046618;28;9424;-65
2023/10/11 14:38:56;;;;;;;;;;;;;;;28.79;41.65;94520.94;5058790;28;7295;-65
2023/10/11 14:41:35;;;;;;;;;;;;;;;28.80;41.74;94521.66;5054215;28;9046;-65